sensor_id;sensor_type;location;lat;lon;timestamp;P1;durP1;ratioP1;P2;durP2;ratioP2
20124;SDS011;10223;50.862;4.360;2023-03-23T00:01:23;8.73;;;4.37;;
20124;SDS011;10223;50.862;4.360;2023-03-23T00:03:51;11.20;;;4.70;;
20124;SDS011;10223;50.862;4.360;2023-03-23T00:06:22;8.53;;;4.97;;
20124;SDS011;10223;50.862;4.360;2023-03-23T00:08:52;8.07;;;4.80;;
20124;SDS011;10223;50.862;4.360;2023-03-23T00:11:25;8.27;;;5.10;;
20124;SDS011;10223;50.862;4.360;2023-03-23T00:13:54;8.70;;;4.50;;
20124;SDS011;10223;50.862;4.360;2023-03-23T00:16:23;9.10;;;4.40;;
20124;SDS011;10223;50.862;4.360;2023-03-23T00:18:56;11.00;;;4.50;;
20124;SDS011;10223;50.862;4.360;2023-03-23T00:21:25;6.97;;;3.43;;
20124;SDS011;10223;50.862;4.360;2023-03-23T00:23:59;7.97;;;3.80;;
20124;SDS011;10223;50.862;4.360;2023-03-23T00:26:27;6.23;;;4.30;;
20124;SDS011;10223;50.862;4.360;2023-03-23T00:28:58;6.07;;;4.50;;
20124;SDS011;10223;50.862;4.360;2023-03-23T00:31:26;7.57;;;4.03;;
20124;SDS011;10223;50.862;4.360;2023-03-23T00:33:56;7.37;;;4.07;;
20124;SDS011;10223;50.862;4.360;2023-03-23T00:36:26;6.17;;;3.80;;
20124;SDS011;10223;50.862;4.360;2023-03-23T00:38:53;6.07;;;3.80;;
20124;SDS011;10223;50.862;4.360;2023-03-23T00:41:25;5.17;;;3.60;;
20124;SDS011;10223;50.862;4.360;2023-03-23T00:43:53;5.10;;;3.67;;
20124;SDS011;10223;50.862;4.360;2023-03-23T00:46:22;6.83;;;3.67;;
20124;SDS011;10223;50.862;4.360;2023-03-23T00:48:49;5.73;;;3.70;;
20124;SDS011;10223;50.862;4.360;2023-03-23T00:51:17;5.80;;;3.67;;
20124;SDS011;10223;50.862;4.360;2023-03-23T00:53:45;6.87;;;3.80;;
20124;SDS011;10223;50.862;4.360;2023-03-23T00:56:12;6.03;;;3.73;;
20124;SDS011;10223;50.862;4.360;2023-03-23T00:58:41;6.00;;;3.70;;
20124;SDS011;10223;50.862;4.360;2023-03-23T01:01:08;5.87;;;3.77;;
20124;SDS011;10223;50.862;4.360;2023-03-23T01:03:35;7.57;;;3.77;;
20124;SDS011;10223;50.862;4.360;2023-03-23T01:06:06;7.53;;;3.77;;
20124;SDS011;10223;50.862;4.360;2023-03-23T01:08:37;6.30;;;4.27;;
20124;SDS011;10223;50.862;4.360;2023-03-23T01:11:11;6.57;;;4.43;;
20124;SDS011;10223;50.862;4.360;2023-03-23T01:13:41;8.53;;;4.00;;
20124;SDS011;10223;50.862;4.360;2023-03-23T01:16:08;7.40;;;4.07;;
20124;SDS011;10223;50.862;4.360;2023-03-23T01:18:36;7.77;;;4.30;;
20124;SDS011;10223;50.862;4.360;2023-03-23T01:21:03;6.60;;;4.37;;
20124;SDS011;10223;50.862;4.360;2023-03-23T01:23:32;7.47;;;3.73;;
20124;SDS011;10223;50.862;4.360;2023-03-23T01:26:02;6.43;;;3.83;;
20124;SDS011;10223;50.862;4.360;2023-03-23T01:28:30;9.80;;;4.47;;
20124;SDS011;10223;50.862;4.360;2023-03-23T01:31:02;7.57;;;4.07;;
20124;SDS011;10223;50.862;4.360;2023-03-23T01:33:31;6.33;;;3.73;;
20124;SDS011;10223;50.862;4.360;2023-03-23T01:36:01;5.93;;;4.17;;
20124;SDS011;10223;50.862;4.360;2023-03-23T01:38:29;7.57;;;3.77;;
20124;SDS011;10223;50.862;4.360;2023-03-23T01:40:57;6.60;;;3.60;;
20124;SDS011;10223;50.862;4.360;2023-03-23T01:43:24;6.93;;;4.10;;
20124;SDS011;10223;50.862;4.360;2023-03-23T01:45:51;4.87;;;3.80;;
20124;SDS011;10223;50.862;4.360;2023-03-23T01:48:20;6.07;;;4.37;;
20124;SDS011;10223;50.862;4.360;2023-03-23T01:50:51;6.63;;;4.13;;
20124;SDS011;10223;50.862;4.360;2023-03-23T01:53:22;7.53;;;4.90;;
20124;SDS011;10223;50.862;4.360;2023-03-23T01:55:52;4.77;;;3.67;;
20124;SDS011;10223;50.862;4.360;2023-03-23T01:58:22;7.73;;;4.07;;
20124;SDS011;10223;50.862;4.360;2023-03-23T02:00:52;11.80;;;4.20;;
20124;SDS011;10223;50.862;4.360;2023-03-23T02:03:22;15.23;;;4.20;;
20124;SDS011;10223;50.862;4.360;2023-03-23T02:05:50;5.73;;;3.40;;
20124;SDS011;10223;50.862;4.360;2023-03-23T02:08:17;8.87;;;4.03;;
20124;SDS011;10223;50.862;4.360;2023-03-23T02:10:45;4.43;;;3.03;;
20124;SDS011;10223;50.862;4.360;2023-03-23T02:13:12;3.30;;;2.40;;
20124;SDS011;10223;50.862;4.360;2023-03-23T02:15:43;6.73;;;2.90;;
20124;SDS011;10223;50.862;4.360;2023-03-23T02:18:17;5.90;;;2.63;;
20124;SDS011;10223;50.862;4.360;2023-03-23T02:20:59;4.30;;;2.40;;
20124;SDS011;10223;50.862;4.360;2023-03-23T02:23:53;3.27;;;2.20;;
20124;SDS011;10223;50.862;4.360;2023-03-23T02:26:50;3.70;;;1.93;;
20124;SDS011;10223;50.862;4.360;2023-03-23T02:35:22;4.30;;;2.10;;
20124;SDS011;10223;50.862;4.360;2023-03-23T02:37:54;4.63;;;1.80;;
20124;SDS011;10223;50.862;4.360;2023-03-23T02:40:27;6.23;;;1.97;;
20124;SDS011;10223;50.862;4.360;2023-03-23T02:42:56;4.50;;;1.80;;
20124;SDS011;10223;50.862;4.360;2023-03-23T02:45:27;5.00;;;1.80;;
20124;SDS011;10223;50.862;4.360;2023-03-23T02:47:56;2.87;;;1.30;;
20124;SDS011;10223;50.862;4.360;2023-03-23T02:50:26;3.37;;;1.30;;
20124;SDS011;10223;50.862;4.360;2023-03-23T02:52:54;2.60;;;1.47;;
20124;SDS011;10223;50.862;4.360;2023-03-23T02:55:23;4.33;;;1.20;;
20124;SDS011;10223;50.862;4.360;2023-03-23T02:57:54;3.20;;;1.00;;
20124;SDS011;10223;50.862;4.360;2023-03-23T03:00:21;2.70;;;1.00;;
20124;SDS011;10223;50.862;4.360;2023-03-23T03:02:48;4.13;;;1.43;;
20124;SDS011;10223;50.862;4.360;2023-03-23T03:05:21;4.00;;;1.23;;
20124;SDS011;10223;50.862;4.360;2023-03-23T03:07:59;4.30;;;1.37;;
20124;SDS011;10223;50.862;4.360;2023-03-23T03:10:34;5.73;;;1.33;;
20124;SDS011;10223;50.862;4.360;2023-03-23T03:13:08;4.20;;;1.60;;
20124;SDS011;10223;50.862;4.360;2023-03-23T03:15:41;3.77;;;1.20;;
20124;SDS011;10223;50.862;4.360;2023-03-23T03:18:13;4.03;;;1.07;;
20124;SDS011;10223;50.862;4.360;2023-03-23T03:20:49;2.93;;;1.30;;
20124;SDS011;10223;50.862;4.360;2023-03-23T03:23:20;4.87;;;1.20;;
20124;SDS011;10223;50.862;4.360;2023-03-23T03:25:50;4.87;;;1.13;;
20124;SDS011;10223;50.862;4.360;2023-03-23T03:28:19;2.30;;;1.10;;
20124;SDS011;10223;50.862;4.360;2023-03-23T03:30:47;6.17;;;1.30;;
20124;SDS011;10223;50.862;4.360;2023-03-23T03:33:20;4.60;;;1.27;;
20124;SDS011;10223;50.862;4.360;2023-03-23T03:35:52;2.60;;;0.93;;
20124;SDS011;10223;50.862;4.360;2023-03-23T03:38:21;7.43;;;1.13;;
20124;SDS011;10223;50.862;4.360;2023-03-23T03:40:48;5.07;;;1.13;;
20124;SDS011;10223;50.862;4.360;2023-03-23T03:43:15;3.13;;;1.30;;
20124;SDS011;10223;50.862;4.360;2023-03-23T03:45:42;5.60;;;1.73;;
20124;SDS011;10223;50.862;4.360;2023-03-23T03:48:09;3.70;;;1.43;;
20124;SDS011;10223;50.862;4.360;2023-03-23T03:50:36;3.67;;;1.13;;
20124;SDS011;10223;50.862;4.360;2023-03-23T03:53:05;7.70;;;1.57;;
20124;SDS011;10223;50.862;4.360;2023-03-23T03:55:32;4.60;;;1.47;;
20124;SDS011;10223;50.862;4.360;2023-03-23T03:58:00;3.70;;;1.47;;
20124;SDS011;10223;50.862;4.360;2023-03-23T04:00:27;6.27;;;2.00;;
20124;SDS011;10223;50.862;4.360;2023-03-23T04:02:54;6.23;;;1.60;;
20124;SDS011;10223;50.862;4.360;2023-03-23T04:05:25;8.23;;;1.57;;
20124;SDS011;10223;50.862;4.360;2023-03-23T04:07:55;6.50;;;1.20;;
20124;SDS011;10223;50.862;4.360;2023-03-23T04:10:28;7.27;;;1.90;;
20124;SDS011;10223;50.862;4.360;2023-03-23T04:12:56;10.77;;;1.60;;
20124;SDS011;10223;50.862;4.360;2023-03-23T04:15:23;7.93;;;1.90;;
20124;SDS011;10223;50.862;4.360;2023-03-23T04:17:51;9.23;;;1.90;;
20124;SDS011;10223;50.862;4.360;2023-03-23T04:20:18;8.07;;;1.87;;
20124;SDS011;10223;50.862;4.360;2023-03-23T04:22:45;8.50;;;1.67;;
20124;SDS011;10223;50.862;4.360;2023-03-23T04:25:15;4.63;;;1.50;;
20124;SDS011;10223;50.862;4.360;2023-03-23T04:27:47;7.80;;;1.30;;
20124;SDS011;10223;50.862;4.360;2023-03-23T04:30:17;5.17;;;1.53;;
20124;SDS011;10223;50.862;4.360;2023-03-23T04:32:46;8.83;;;1.67;;
20124;SDS011;10223;50.862;4.360;2023-03-23T04:35:15;4.70;;;1.27;;
20124;SDS011;10223;50.862;4.360;2023-03-23T04:37:43;5.33;;;1.50;;
20124;SDS011;10223;50.862;4.360;2023-03-23T04:40:11;6.50;;;1.47;;
20124;SDS011;10223;50.862;4.360;2023-03-23T04:42:39;6.10;;;1.20;;
20124;SDS011;10223;50.862;4.360;2023-03-23T04:45:12;5.20;;;1.30;;
20124;SDS011;10223;50.862;4.360;2023-03-23T04:47:41;12.00;;;1.47;;
20124;SDS011;10223;50.862;4.360;2023-03-23T04:50:18;4.93;;;1.23;;
20124;SDS011;10223;50.862;4.360;2023-03-23T04:52:46;9.00;;;1.53;;
20124;SDS011;10223;50.862;4.360;2023-03-23T04:55:16;5.83;;;1.73;;
20124;SDS011;10223;50.862;4.360;2023-03-23T04:57:44;4.73;;;1.20;;
20124;SDS011;10223;50.862;4.360;2023-03-23T05:00:13;6.23;;;1.47;;
20124;SDS011;10223;50.862;4.360;2023-03-23T05:02:41;7.30;;;1.60;;
20124;SDS011;10223;50.862;4.360;2023-03-23T05:05:09;4.87;;;1.37;;
20124;SDS011;10223;50.862;4.360;2023-03-23T05:07:38;6.63;;;1.50;;
20124;SDS011;10223;50.862;4.360;2023-03-23T05:10:06;5.63;;;1.07;;
20124;SDS011;10223;50.862;4.360;2023-03-23T05:12:35;7.13;;;1.43;;
20124;SDS011;10223;50.862;4.360;2023-03-23T05:15:02;4.97;;;1.37;;
20124;SDS011;10223;50.862;4.360;2023-03-23T05:17:32;5.10;;;1.27;;
20124;SDS011;10223;50.862;4.360;2023-03-23T05:19:59;6.97;;;1.63;;
20124;SDS011;10223;50.862;4.360;2023-03-23T05:22:30;3.73;;;1.47;;
20124;SDS011;10223;50.862;4.360;2023-03-23T05:24:58;3.20;;;1.23;;
20124;SDS011;10223;50.862;4.360;2023-03-23T05:27:27;5.67;;;1.13;;
20124;SDS011;10223;50.862;4.360;2023-03-23T05:29:55;10.07;;;1.83;;
20124;SDS011;10223;50.862;4.360;2023-03-23T05:32:23;5.83;;;1.93;;
20124;SDS011;10223;50.862;4.360;2023-03-23T05:34:55;7.83;;;1.90;;
20124;SDS011;10223;50.862;4.360;2023-03-23T05:37:22;7.37;;;2.00;;
20124;SDS011;10223;50.862;4.360;2023-03-23T05:39:51;8.67;;;1.50;;
20124;SDS011;10223;50.862;4.360;2023-03-23T05:42:20;6.57;;;1.90;;
20124;SDS011;10223;50.862;4.360;2023-03-23T05:44:47;6.70;;;1.70;;
20124;SDS011;10223;50.862;4.360;2023-03-23T05:47:15;6.37;;;1.70;;
20124;SDS011;10223;50.862;4.360;2023-03-23T05:49:42;9.20;;;1.90;;
20124;SDS011;10223;50.862;4.360;2023-03-23T05:52:11;5.23;;;1.90;;
20124;SDS011;10223;50.862;4.360;2023-03-23T05:54:38;7.67;;;1.67;;
20124;SDS011;10223;50.862;4.360;2023-03-23T05:57:06;6.63;;;1.90;;
20124;SDS011;10223;50.862;4.360;2023-03-23T05:59:34;7.03;;;1.50;;
20124;SDS011;10223;50.862;4.360;2023-03-23T06:02:01;6.30;;;1.50;;
20124;SDS011;10223;50.862;4.360;2023-03-23T06:04:27;5.40;;;1.63;;
20124;SDS011;10223;50.862;4.360;2023-03-23T06:06:54;7.00;;;1.67;;
20124;SDS011;10223;50.862;4.360;2023-03-23T06:09:23;7.43;;;1.93;;
20124;SDS011;10223;50.862;4.360;2023-03-23T06:11:50;8.53;;;2.07;;
20124;SDS011;10223;50.862;4.360;2023-03-23T06:14:17;9.33;;;2.40;;
20124;SDS011;10223;50.862;4.360;2023-03-23T06:16:44;7.90;;;1.80;;
20124;SDS011;10223;50.862;4.360;2023-03-23T06:19:11;6.63;;;1.60;;
20124;SDS011;10223;50.862;4.360;2023-03-23T06:21:39;4.23;;;1.70;;
20124;SDS011;10223;50.862;4.360;2023-03-23T06:24:06;8.13;;;2.00;;
20124;SDS011;10223;50.862;4.360;2023-03-23T06:26:36;7.10;;;1.53;;
20124;SDS011;10223;50.862;4.360;2023-03-23T06:29:04;10.00;;;1.90;;
20124;SDS011;10223;50.862;4.360;2023-03-23T06:31:36;14.00;;;2.40;;
20124;SDS011;10223;50.862;4.360;2023-03-23T06:34:05;7.63;;;1.67;;
20124;SDS011;10223;50.862;4.360;2023-03-23T06:36:32;5.80;;;1.80;;
20124;SDS011;10223;50.862;4.360;2023-03-23T06:38:59;5.70;;;1.67;;
20124;SDS011;10223;50.862;4.360;2023-03-23T06:41:26;8.20;;;1.40;;
20124;SDS011;10223;50.862;4.360;2023-03-23T06:43:54;12.03;;;2.37;;
20124;SDS011;10223;50.862;4.360;2023-03-23T06:46:21;9.23;;;1.90;;
20124;SDS011;10223;50.862;4.360;2023-03-23T06:48:48;10.07;;;2.10;;
20124;SDS011;10223;50.862;4.360;2023-03-23T06:51:16;14.33;;;2.23;;
20124;SDS011;10223;50.862;4.360;2023-03-23T06:53:43;10.47;;;2.03;;
20124;SDS011;10223;50.862;4.360;2023-03-23T06:56:10;9.40;;;1.73;;
20124;SDS011;10223;50.862;4.360;2023-03-23T06:58:38;7.23;;;1.83;;
20124;SDS011;10223;50.862;4.360;2023-03-23T07:01:08;7.77;;;1.80;;
20124;SDS011;10223;50.862;4.360;2023-03-23T07:03:35;6.67;;;2.17;;
20124;SDS011;10223;50.862;4.360;2023-03-23T07:06:03;6.03;;;1.67;;
20124;SDS011;10223;50.862;4.360;2023-03-23T07:08:30;2.87;;;0.80;;
20124;SDS011;10223;50.862;4.360;2023-03-23T07:10:57;5.93;;;1.10;;
20124;SDS011;10223;50.862;4.360;2023-03-23T07:13:24;3.67;;;0.87;;
20124;SDS011;10223;50.862;4.360;2023-03-23T07:15:51;3.47;;;0.70;;
20124;SDS011;10223;50.862;4.360;2023-03-23T07:18:21;2.67;;;0.70;;
20124;SDS011;10223;50.862;4.360;2023-03-23T07:20:48;6.07;;;1.30;;
20124;SDS011;10223;50.862;4.360;2023-03-23T07:23:15;6.07;;;1.10;;
20124;SDS011;10223;50.862;4.360;2023-03-23T07:25:43;2.80;;;0.80;;
20124;SDS011;10223;50.862;4.360;2023-03-23T07:28:11;3.80;;;0.87;;
20124;SDS011;10223;50.862;4.360;2023-03-23T07:30:38;2.83;;;0.80;;
20124;SDS011;10223;50.862;4.360;2023-03-23T07:33:06;3.33;;;1.00;;
20124;SDS011;10223;50.862;4.360;2023-03-23T07:35:35;11.00;;;1.23;;
20124;SDS011;10223;50.862;4.360;2023-03-23T07:38:03;4.10;;;1.17;;
20124;SDS011;10223;50.862;4.360;2023-03-23T07:40:31;15.00;;;1.67;;
20124;SDS011;10223;50.862;4.360;2023-03-23T07:42:59;17.10;;;2.00;;
20124;SDS011;10223;50.862;4.360;2023-03-23T07:45:28;13.00;;;1.80;;
20124;SDS011;10223;50.862;4.360;2023-03-23T07:47:55;5.77;;;1.60;;
20124;SDS011;10223;50.862;4.360;2023-03-23T07:50:22;15.30;;;2.67;;
20124;SDS011;10223;50.862;4.360;2023-03-23T07:52:53;5.23;;;1.50;;
20124;SDS011;10223;50.862;4.360;2023-03-23T07:55:21;7.10;;;1.53;;
20124;SDS011;10223;50.862;4.360;2023-03-23T07:57:50;9.33;;;2.23;;
20124;SDS011;10223;50.862;4.360;2023-03-23T08:00:18;6.70;;;1.97;;
20124;SDS011;10223;50.862;4.360;2023-03-23T08:02:49;6.00;;;1.87;;
20124;SDS011;10223;50.862;4.360;2023-03-23T08:05:17;4.77;;;1.60;;
20124;SDS011;10223;50.862;4.360;2023-03-23T08:07:45;4.87;;;1.80;;
20124;SDS011;10223;50.862;4.360;2023-03-23T08:10:15;4.40;;;1.63;;
20124;SDS011;10223;50.862;4.360;2023-03-23T08:12:43;6.93;;;1.47;;
20124;SDS011;10223;50.862;4.360;2023-03-23T08:15:13;3.87;;;1.00;;
20124;SDS011;10223;50.862;4.360;2023-03-23T08:17:41;3.47;;;1.00;;
20124;SDS011;10223;50.862;4.360;2023-03-23T08:20:09;4.37;;;1.40;;
20124;SDS011;10223;50.862;4.360;2023-03-23T08:22:38;5.70;;;1.40;;
20124;SDS011;10223;50.862;4.360;2023-03-23T08:25:07;3.23;;;0.90;;
20124;SDS011;10223;50.862;4.360;2023-03-23T08:27:37;3.70;;;1.00;;
20124;SDS011;10223;50.862;4.360;2023-03-23T08:30:08;6.40;;;0.97;;
20124;SDS011;10223;50.862;4.360;2023-03-23T08:32:36;6.63;;;1.30;;
20124;SDS011;10223;50.862;4.360;2023-03-23T08:35:04;6.80;;;1.30;;
20124;SDS011;10223;50.862;4.360;2023-03-23T08:37:34;8.00;;;1.30;;
20124;SDS011;10223;50.862;4.360;2023-03-23T08:40:01;11.80;;;2.83;;
20124;SDS011;10223;50.862;4.360;2023-03-23T08:42:34;5.53;;;1.50;;
20124;SDS011;10223;50.862;4.360;2023-03-23T08:45:03;7.07;;;2.07;;
20124;SDS011;10223;50.862;4.360;2023-03-23T08:47:31;7.57;;;1.57;;
20124;SDS011;10223;50.862;4.360;2023-03-23T08:49:58;6.87;;;1.47;;
20124;SDS011;10223;50.862;4.360;2023-03-23T08:52:25;4.00;;;0.83;;
20124;SDS011;10223;50.862;4.360;2023-03-23T08:54:52;9.00;;;1.20;;
20124;SDS011;10223;50.862;4.360;2023-03-23T08:57:19;3.67;;;1.33;;
20124;SDS011;10223;50.862;4.360;2023-03-23T08:59:46;6.63;;;1.70;;
20124;SDS011;10223;50.862;4.360;2023-03-23T09:02:14;6.77;;;1.30;;
20124;SDS011;10223;50.862;4.360;2023-03-23T09:04:42;10.40;;;1.53;;
20124;SDS011;10223;50.862;4.360;2023-03-23T09:07:09;11.93;;;1.73;;
20124;SDS011;10223;50.862;4.360;2023-03-23T09:09:37;7.73;;;2.10;;
20124;SDS011;10223;50.862;4.360;2023-03-23T09:12:05;7.17;;;1.50;;
20124;SDS011;10223;50.862;4.360;2023-03-23T09:14:33;3.50;;;1.43;;
20124;SDS011;10223;50.862;4.360;2023-03-23T09:17:00;6.77;;;1.13;;
20124;SDS011;10223;50.862;4.360;2023-03-23T09:19:29;12.07;;;1.67;;
20124;SDS011;10223;50.862;4.360;2023-03-23T09:21:58;4.53;;;1.40;;
20124;SDS011;10223;50.862;4.360;2023-03-23T09:24:25;3.80;;;1.20;;
20124;SDS011;10223;50.862;4.360;2023-03-23T09:26:52;7.37;;;1.90;;
20124;SDS011;10223;50.862;4.360;2023-03-23T09:29:19;4.93;;;1.73;;
20124;SDS011;10223;50.862;4.360;2023-03-23T09:31:46;7.73;;;2.50;;
20124;SDS011;10223;50.862;4.360;2023-03-23T09:34:13;6.40;;;1.70;;
20124;SDS011;10223;50.862;4.360;2023-03-23T09:36:43;14.43;;;2.17;;
20124;SDS011;10223;50.862;4.360;2023-03-23T09:39:11;8.33;;;1.20;;
20124;SDS011;10223;50.862;4.360;2023-03-23T09:41:48;5.93;;;1.63;;
20124;SDS011;10223;50.862;4.360;2023-03-23T09:44:36;4.33;;;1.40;;
20124;SDS011;10223;50.862;4.360;2023-03-23T09:47:16;5.40;;;1.53;;
20124;SDS011;10223;50.862;4.360;2023-03-23T09:49:48;5.60;;;1.50;;
20124;SDS011;10223;50.862;4.360;2023-03-23T09:52:21;6.80;;;1.70;;
20124;SDS011;10223;50.862;4.360;2023-03-23T09:54:49;4.37;;;1.60;;
20124;SDS011;10223;50.862;4.360;2023-03-23T09:57:19;2.63;;;1.10;;
20124;SDS011;10223;50.862;4.360;2023-03-23T09:59:52;3.93;;;1.37;;
20124;SDS011;10223;50.862;4.360;2023-03-23T10:02:24;5.23;;;1.50;;
20124;SDS011;10223;50.862;4.360;2023-03-23T10:04:55;3.97;;;1.67;;
20124;SDS011;10223;50.862;4.360;2023-03-23T10:07:28;6.63;;;1.77;;
20124;SDS011;10223;50.862;4.360;2023-03-23T10:09:56;8.37;;;1.97;;
20124;SDS011;10223;50.862;4.360;2023-03-23T10:12:27;7.10;;;1.73;;
20124;SDS011;10223;50.862;4.360;2023-03-23T10:17:48;13.10;;;2.33;;
20124;SDS011;10223;50.862;4.360;2023-03-23T10:23:12;4.67;;;2.00;;
20124;SDS011;10223;50.862;4.360;2023-03-23T10:25:42;4.17;;;1.57;;
20124;SDS011;10223;50.862;4.360;2023-03-23T10:28:15;5.93;;;1.60;;
20124;SDS011;10223;50.862;4.360;2023-03-23T10:30:45;5.33;;;1.67;;
20124;SDS011;10223;50.862;4.360;2023-03-23T10:33:15;4.60;;;1.67;;
20124;SDS011;10223;50.862;4.360;2023-03-23T10:35:47;4.97;;;2.10;;
20124;SDS011;10223;50.862;4.360;2023-03-23T10:38:21;7.67;;;2.17;;
20124;SDS011;10223;50.862;4.360;2023-03-23T10:40:55;3.50;;;1.80;;
20124;SDS011;10223;50.862;4.360;2023-03-23T10:43:25;11.47;;;2.63;;
20124;SDS011;10223;50.862;4.360;2023-03-23T10:45:55;7.60;;;2.00;;
20124;SDS011;10223;50.862;4.360;2023-03-23T10:48:28;7.23;;;2.13;;
20124;SDS011;10223;50.862;4.360;2023-03-23T10:50:57;7.23;;;2.10;;
20124;SDS011;10223;50.862;4.360;2023-03-23T10:53:28;10.47;;;2.83;;
20124;SDS011;10223;50.862;4.360;2023-03-23T10:55:58;8.40;;;3.20;;
20124;SDS011;10223;50.862;4.360;2023-03-23T10:58:27;5.70;;;2.13;;
20124;SDS011;10223;50.862;4.360;2023-03-23T11:00:55;6.90;;;1.90;;
20124;SDS011;10223;50.862;4.360;2023-03-23T11:03:25;9.43;;;3.17;;
20124;SDS011;10223;50.862;4.360;2023-03-23T11:06:00;6.73;;;2.27;;
20124;SDS011;10223;50.862;4.360;2023-03-23T11:08:32;6.53;;;1.90;;
20124;SDS011;10223;50.862;4.360;2023-03-23T11:11:08;9.47;;;2.47;;
20124;SDS011;10223;50.862;4.360;2023-03-23T11:13:39;9.70;;;2.27;;
20124;SDS011;10223;50.862;4.360;2023-03-23T11:16:08;8.23;;;2.10;;
20124;SDS011;10223;50.862;4.360;2023-03-23T11:18:36;4.57;;;2.10;;
20124;SDS011;10223;50.862;4.360;2023-03-23T11:21:05;7.60;;;2.30;;
20124;SDS011;10223;50.862;4.360;2023-03-23T11:23:37;7.47;;;2.03;;
20124;SDS011;10223;50.862;4.360;2023-03-23T11:26:10;8.40;;;2.17;;
20124;SDS011;10223;50.862;4.360;2023-03-23T11:28:42;8.60;;;2.43;;
20124;SDS011;10223;50.862;4.360;2023-03-23T11:31:12;8.50;;;2.60;;
20124;SDS011;10223;50.862;4.360;2023-03-23T11:33:45;8.23;;;2.60;;
20124;SDS011;10223;50.862;4.360;2023-03-23T11:36:18;12.70;;;2.40;;
20124;SDS011;10223;50.862;4.360;2023-03-23T11:38:51;8.30;;;2.03;;
20124;SDS011;10223;50.862;4.360;2023-03-23T11:41:22;9.20;;;2.13;;
20124;SDS011;10223;50.862;4.360;2023-03-23T11:43:57;6.87;;;1.93;;
20124;SDS011;10223;50.862;4.360;2023-03-23T11:46:35;14.13;;;2.13;;
20124;SDS011;10223;50.862;4.360;2023-03-23T11:49:09;6.37;;;1.67;;
20124;SDS011;10223;50.862;4.360;2023-03-23T11:51:42;10.87;;;1.67;;
20124;SDS011;10223;50.862;4.360;2023-03-23T11:54:15;5.93;;;1.37;;
20124;SDS011;10223;50.862;4.360;2023-03-23T11:56:45;12.83;;;2.63;;
20124;SDS011;10223;50.862;4.360;2023-03-23T11:59:14;7.07;;;1.70;;
20124;SDS011;10223;50.862;4.360;2023-03-23T12:01:50;10.63;;;2.13;;
20124;SDS011;10223;50.862;4.360;2023-03-23T12:04:33;7.83;;;2.53;;
20124;SDS011;10223;50.862;4.360;2023-03-23T12:07:14;6.73;;;1.33;;
20124;SDS011;10223;50.862;4.360;2023-03-23T12:09:58;7.77;;;2.07;;
20124;SDS011;10223;50.862;4.360;2023-03-23T12:12:36;11.10;;;2.10;;
20124;SDS011;10223;50.862;4.360;2023-03-23T12:15:11;8.47;;;2.10;;
20124;SDS011;10223;50.862;4.360;2023-03-23T12:17:51;6.70;;;1.97;;
20124;SDS011;10223;50.862;4.360;2023-03-23T12:20:28;7.67;;;1.80;;
20124;SDS011;10223;50.862;4.360;2023-03-23T12:23:14;14.30;;;2.40;;
20124;SDS011;10223;50.862;4.360;2023-03-23T12:25:54;12.30;;;2.23;;
20124;SDS011;10223;50.862;4.360;2023-03-23T12:28:52;9.83;;;1.77;;
20124;SDS011;10223;50.862;4.360;2023-03-23T12:31:42;8.10;;;2.07;;
20124;SDS011;10223;50.862;4.360;2023-03-23T12:34:17;5.07;;;1.63;;
20124;SDS011;10223;50.862;4.360;2023-03-23T12:36:55;5.73;;;1.60;;
20124;SDS011;10223;50.862;4.360;2023-03-23T12:39:45;12.70;;;2.23;;
20124;SDS011;10223;50.862;4.360;2023-03-23T12:42:39;8.17;;;2.03;;
20124;SDS011;10223;50.862;4.360;2023-03-23T12:45:15;16.13;;;3.13;;
20124;SDS011;10223;50.862;4.360;2023-03-23T12:47:50;8.07;;;1.80;;
20124;SDS011;10223;50.862;4.360;2023-03-23T12:50:21;8.27;;;1.50;;
20124;SDS011;10223;50.862;4.360;2023-03-23T12:52:54;13.30;;;2.00;;
20124;SDS011;10223;50.862;4.360;2023-03-23T12:55:27;13.13;;;2.60;;
20124;SDS011;10223;50.862;4.360;2023-03-23T12:58:02;18.77;;;2.63;;
20124;SDS011;10223;50.862;4.360;2023-03-23T13:00:33;13.70;;;2.37;;
20124;SDS011;10223;50.862;4.360;2023-03-23T13:03:05;10.73;;;2.37;;
20124;SDS011;10223;50.862;4.360;2023-03-23T13:05:42;20.43;;;2.47;;
20124;SDS011;10223;50.862;4.360;2023-03-23T13:08:20;8.33;;;1.80;;
20124;SDS011;10223;50.862;4.360;2023-03-23T13:10:52;13.43;;;2.30;;
20124;SDS011;10223;50.862;4.360;2023-03-23T13:13:25;13.60;;;2.30;;
20124;SDS011;10223;50.862;4.360;2023-03-23T13:16:07;11.33;;;2.53;;
20124;SDS011;10223;50.862;4.360;2023-03-23T13:18:42;14.23;;;2.30;;
20124;SDS011;10223;50.862;4.360;2023-03-23T13:21:17;6.80;;;1.73;;
20124;SDS011;10223;50.862;4.360;2023-03-23T13:23:49;22.83;;;2.87;;
20124;SDS011;10223;50.862;4.360;2023-03-23T13:26:20;6.60;;;2.30;;
20124;SDS011;10223;50.862;4.360;2023-03-23T13:28:54;10.23;;;2.63;;
20124;SDS011;10223;50.862;4.360;2023-03-23T13:31:24;11.63;;;2.17;;
20124;SDS011;10223;50.862;4.360;2023-03-23T13:33:57;17.57;;;2.80;;
20124;SDS011;10223;50.862;4.360;2023-03-23T13:36:29;18.73;;;2.40;;
20124;SDS011;10223;50.862;4.360;2023-03-23T13:38:58;13.03;;;2.37;;
20124;SDS011;10223;50.862;4.360;2023-03-23T13:41:27;7.50;;;1.97;;
20124;SDS011;10223;50.862;4.360;2023-03-23T13:44:07;10.80;;;2.17;;
20124;SDS011;10223;50.862;4.360;2023-03-23T13:46:53;13.60;;;2.30;;
20124;SDS011;10223;50.862;4.360;2023-03-23T13:49:21;15.03;;;2.00;;
20124;SDS011;10223;50.862;4.360;2023-03-23T13:51:59;17.33;;;2.20;;
20124;SDS011;10223;50.862;4.360;2023-03-23T13:54:31;17.23;;;2.33;;
20124;SDS011;10223;50.862;4.360;2023-03-23T14:00:08;11.83;;;2.20;;
20124;SDS011;10223;50.862;4.360;2023-03-23T14:02:40;10.40;;;1.83;;
20124;SDS011;10223;50.862;4.360;2023-03-23T14:05:26;7.37;;;1.80;;
20124;SDS011;10223;50.862;4.360;2023-03-23T14:07:59;10.23;;;2.10;;
20124;SDS011;10223;50.862;4.360;2023-03-23T14:10:33;5.97;;;1.80;;
20124;SDS011;10223;50.862;4.360;2023-03-23T14:13:03;16.63;;;2.27;;
20124;SDS011;10223;50.862;4.360;2023-03-23T14:15:40;10.00;;;2.43;;
20124;SDS011;10223;50.862;4.360;2023-03-23T14:18:12;8.67;;;2.43;;
20124;SDS011;10223;50.862;4.360;2023-03-23T14:20:41;10.00;;;2.10;;
20124;SDS011;10223;50.862;4.360;2023-03-23T14:23:14;8.00;;;2.07;;
20124;SDS011;10223;50.862;4.360;2023-03-23T14:25:42;7.57;;;1.90;;
20124;SDS011;10223;50.862;4.360;2023-03-23T14:28:18;7.93;;;2.27;;
20124;SDS011;10223;50.862;4.360;2023-03-23T14:30:48;10.00;;;2.23;;
20124;SDS011;10223;50.862;4.360;2023-03-23T14:33:22;7.83;;;2.40;;
20124;SDS011;10223;50.862;4.360;2023-03-23T14:35:52;10.30;;;2.03;;
20124;SDS011;10223;50.862;4.360;2023-03-23T14:38:20;14.47;;;2.53;;
20124;SDS011;10223;50.862;4.360;2023-03-23T14:40:51;8.47;;;2.20;;
20124;SDS011;10223;50.862;4.360;2023-03-23T14:43:20;13.17;;;3.27;;
20124;SDS011;10223;50.862;4.360;2023-03-23T14:45:51;11.47;;;2.50;;
20124;SDS011;10223;50.862;4.360;2023-03-23T14:48:20;10.40;;;1.93;;
20124;SDS011;10223;50.862;4.360;2023-03-23T14:50:48;9.93;;;1.83;;
20124;SDS011;10223;50.862;4.360;2023-03-23T14:53:18;12.13;;;2.10;;
20124;SDS011;10223;50.862;4.360;2023-03-23T14:55:47;6.93;;;2.00;;
20124;SDS011;10223;50.862;4.360;2023-03-23T14:58:16;10.10;;;2.00;;
20124;SDS011;10223;50.862;4.360;2023-03-23T15:00:45;5.93;;;1.80;;
20124;SDS011;10223;50.862;4.360;2023-03-23T15:03:17;8.03;;;1.63;;
20124;SDS011;10223;50.862;4.360;2023-03-23T15:05:46;12.70;;;2.37;;
20124;SDS011;10223;50.862;4.360;2023-03-23T15:08:17;11.77;;;1.83;;
20124;SDS011;10223;50.862;4.360;2023-03-23T15:10:57;9.67;;;2.17;;
20124;SDS011;10223;50.862;4.360;2023-03-23T15:13:29;13.70;;;2.50;;
20124;SDS011;10223;50.862;4.360;2023-03-23T15:16:06;10.43;;;2.20;;
20124;SDS011;10223;50.862;4.360;2023-03-23T15:18:40;9.60;;;2.13;;
20124;SDS011;10223;50.862;4.360;2023-03-23T15:21:19;7.90;;;2.20;;